Time;durP1;ratioP1;P1;durP2;ratioP2;P2;SDS_P1;SDS_P2;PMS_P1;PMS_P2;Temp;Humidity;BMP_temperature;BMP_pressure;BME280_temperature;BME280_humidity;BME280_pressure;Samples;Min_cycle;Max_cycle;Signal;HPM_P1;HPM_P2
2022/07/30 00:00:06;;;;;;;8.23;3.92;;;22.20;60.10;;;;;;5055543;28;20369;-77
2022/07/30 00:02:32;;;;;;;6.07;3.60;;;22.20;60.80;;;;;;5055595;28;20055;-77
2022/07/30 00:04:57;;;;;;;9.35;3.97;;;22.20;61.00;;;;;;5039997;28;20041;-77
2022/07/30 00:07:23;;;;;;;8.65;4.75;;;22.10;61.30;;;;;;5035676;28;20049;-77
2022/07/30 00:09:49;;;;;;;11.07;4.22;;;22.00;61.70;;;;;;5034592;28;20037;-77
2022/07/30 00:12:14;;;;;;;7.20;4.03;;;21.90;61.70;;;;;;5039710;28;20039;-77
2022/07/30 00:14:40;;;;;;;7.97;4.32;;;21.90;62.00;;;;;;5055421;28;20029;-78
2022/07/30 00:17:06;;;;;;;13.48;4.88;;;21.80;61.90;;;;;;5055366;28;20096;-77
2022/07/30 00:19:31;;;;;;;9.05;4.68;;;21.80;62.00;;;;;;5053182;28;20411;-77
2022/07/30 00:21:57;;;;;;;8.63;4.20;;;21.80;61.60;;;;;;5035682;28;20033;-77
2022/07/30 00:24:33;;;;;;;11.30;5.25;;;21.90;62.00;;;;;;5035484;28;20026;-77
2022/07/30 00:26:58;;;;;;;10.88;4.82;;;21.80;62.50;;;;;;5034235;28;20030;-77
2022/07/30 00:29:25;;;;;;;8.95;4.47;;;21.80;62.40;;;;;;5035465;28;20036;-77
2022/07/30 00:31:51;;;;;;;10.65;4.65;;;21.80;61.90;;;;;;5035435;28;20029;-77
2022/07/30 00:34:16;;;;;;;9.70;5.28;;;21.80;62.40;;;;;;5034436;28;20032;-77
2022/07/30 00:36:42;;;;;;;10.45;5.43;;;21.70;62.70;;;;;;5035527;28;20426;-77
2022/07/30 00:39:08;;;;;;;8.38;4.68;;;21.70;63.20;;;;;;5044023;28;20032;-77
2022/07/30 00:41:36;;;;;;;8.07;5.00;;;21.60;63.00;;;;;;5055333;28;20116;-77
2022/07/30 00:44:02;;;;;;;7.07;4.45;;;21.70;63.50;;;;;;5053925;28;20075;-77
2022/07/30 00:46:28;;;;;;;7.10;4.47;;;21.60;63.00;;;;;;5034128;28;20036;-77
2022/07/30 00:48:54;;;;;;;7.85;5.18;;;21.60;63.00;;;;;;5035261;28;20458;-77
2022/07/30 00:51:19;;;;;;;9.35;4.95;;;21.60;63.00;;;;;;5044094;28;20397;-77
2022/07/30 00:53:45;;;;;;;12.60;5.78;;;21.50;63.30;;;;;;5055149;28;20413;-77
2022/07/30 00:56:10;;;;;;;11.55;5.90;;;21.50;63.50;;;;;;5051731;28;20017;-77
2022/07/30 00:58:41;;;;;;;7.55;4.85;;;21.50;63.50;;;;;;5034968;28;20087;-77
2022/07/30 01:01:07;;;;;;;13.80;6.03;;;21.40;63.00;;;;;;5045363;28;20029;-77
2022/07/30 01:03:32;;;;;;;8.13;5.45;;;21.40;63.60;;;;;;5035109;28;20077;-77
2022/07/30 01:05:58;;;;;;;10.55;6.00;;;21.40;63.50;;;;;;5035284;28;20048;-77
2022/07/30 01:08:24;;;;;;;9.85;5.60;;;21.30;64.30;;;;;;5035051;28;20037;-77
2022/07/30 01:10:49;;;;;;;10.48;5.63;;;21.30;64.30;;;;;;5035410;28;20025;-77
2022/07/30 01:13:15;;;;;;;8.75;5.95;;;21.30;64.10;;;;;;5035003;28;20021;-77
2022/07/30 01:15:43;;;;;;;8.93;5.97;;;21.30;64.50;;;;;;5035297;28;20021;-77
2022/07/30 01:18:11;;;;;;;13.15;6.88;;;21.30;64.30;;;;;;5046615;28;20517;-77
2022/07/30 01:20:48;;;;;;;14.13;7.70;;;21.20;65.10;;;;;;5053875;28;20507;-77
2022/07/30 01:23:26;;;;;;;12.45;6.88;;;21.20;65.00;;;;;;5036774;28;20036;-77
2022/07/30 01:26:03;;;;;;;13.45;8.52;;;21.10;64.80;;;;;;5039214;28;20572;-76
2022/07/30 01:28:34;;;;;;;12.90;8.25;;;21.10;65.20;;;;;;5038482;28;20507;-77
2022/07/30 01:31:02;;;;;;;12.27;6.88;;;21.00;65.90;;;;;;5038593;28;20079;-77
2022/07/30 01:33:30;;;;;;;15.50;7.65;;;21.00;65.50;;;;;;5038476;28;20032;-77
2022/07/30 01:35:57;;;;;;;13.13;6.97;;;21.00;65.10;;;;;;5037271;28;20480;-77
2022/07/30 01:38:31;;;;;;;12.77;7.32;;;21.00;64.70;;;;;;5038097;28;20029;-76
2022/07/30 01:40:58;;;;;;;12.27;6.72;;;21.00;65.20;;;;;;5037244;28;20025;-77
2022/07/30 01:43:25;;;;;;;18.27;7.22;;;21.00;65.00;;;;;;5038084;28;20036;-77
2022/07/30 01:45:52;;;;;;;11.90;7.43;;;21.00;65.00;;;;;;5038555;28;20037;-77
2022/07/30 01:48:22;;;;;;;15.95;7.78;;;21.00;65.60;;;;;;5038114;28;20021;-77
2022/07/30 01:50:51;;;;;;;13.20;8.43;;;20.90;65.30;;;;;;5053232;28;20471;-77
2022/07/30 01:53:19;;;;;;;14.18;7.70;;;20.90;65.40;;;;;;5058144;28;20556;-77
2022/07/30 01:55:52;;;;;;;14.18;8.30;;;20.80;66.40;;;;;;5058011;28;20513;-77
2022/07/30 01:58:20;;;;;;;19.42;8.30;;;20.80;66.20;;;;;;5038033;28;20029;-77
2022/07/30 02:00:48;;;;;;;16.17;8.13;;;20.80;66.10;;;;;;5046333;28;20025;-77
2022/07/30 02:03:14;;;;;;;11.75;8.23;;;20.80;66.00;;;;;;5041127;28;20034;-77
2022/07/30 02:05:41;;;;;;;15.30;8.43;;;20.80;66.00;;;;;;5037987;28;20025;-77
2022/07/30 02:08:21;;;;;;;17.15;10.00;;;20.80;66.50;;;;;;5037716;28;20033;-77
2022/07/30 02:12:27;;;;;;;11.98;8.23;;;20.80;66.50;;;;;;5036542;28;20399;-77
2022/07/30 02:14:16;;;;;;;15.48;8.75;;;20.80;66.70;;;;;;5035206;28;20045;-77
2022/07/30 02:16:44;;;;;;;13.02;8.25;;;20.80;66.70;;;;;;5038733;28;20017;-77
2022/07/30 02:19:18;;;;;;;19.05;9.18;;;20.70;66.40;;;;;;5056276;28;20049;-77
2022/07/30 02:21:47;;;;;;;17.08;9.82;;;20.70;67.40;;;;;;5057709;28;20025;-77
2022/07/30 02:24:20;;;;;;;12.40;8.45;;;20.60;67.10;;;;;;5057495;28;20021;-77
2022/07/30 02:26:50;;;;;;;14.60;9.48;;;20.60;67.10;;;;;;5051912;28;20056;-77
2022/07/30 02:29:19;;;;;;;21.27;11.20;;;20.60;67.60;;;;;;5052605;28;20036;-77
2022/07/30 02:31:46;;;;;;;24.10;10.93;;;20.50;67.30;;;;;;5037440;28;20555;-77
2022/07/30 02:34:13;;;;;;;16.48;9.85;;;20.50;67.50;;;;;;5037376;28;20017;-77
2022/07/30 02:36:41;;;;;;;21.38;10.93;;;20.50;67.40;;;;;;5054777;28;20029;-77
2022/07/30 02:39:08;;;;;;;19.10;11.23;;;20.50;67.80;;;;;;5053172;28;20045;-77
2022/07/30 02:41:37;;;;;;;22.63;12.48;;;20.40;68.60;;;;;;5037211;28;20021;-77
2022/07/30 02:44:04;;;;;;;21.42;11.95;;;20.30;68.30;;;;;;5037073;28;20017;-77
2022/07/30 02:46:31;;;;;;;19.42;10.57;;;20.40;68.20;;;;;;5035784;28;20030;-77
2022/07/30 02:48:58;;;;;;;24.20;11.38;;;20.30;68.60;;;;;;5035919;28;20120;-76
2022/07/30 02:51:26;;;;;;;18.27;11.68;;;20.30;68.60;;;;;;5037088;28;20033;-77
2022/07/30 02:53:54;;;;;;;21.25;11.82;;;20.30;68.30;;;;;;5035668;28;20160;-77
2022/07/30 02:56:22;;;;;;;26.00;12.25;;;20.30;67.90;;;;;;5035658;28;20404;-77
2022/07/30 02:58:50;;;;;;;23.23;12.88;;;20.30;68.60;;;;;;5035395;28;20395;-77
2022/07/30 03:01:18;;;;;;;23.92;14.02;;;20.30;68.50;;;;;;5050291;28;20021;-77
2022/07/30 03:04:05;;;;;;;24.25;13.65;;;20.30;68.80;;;;;;5055684;28;20541;-77
2022/07/30 03:06:31;;;;;;;24.52;14.00;;;20.20;69.10;;;;;;5051564;28;20026;-77
2022/07/30 03:09:00;;;;;;;24.92;14.32;;;20.20;69.00;;;;;;5036706;28;20041;-77
2022/07/30 03:11:26;;;;;;;28.05;14.52;;;20.30;68.90;;;;;;5036612;28;20037;-76
2022/07/30 03:13:52;;;;;;;26.80;14.38;;;20.20;69.40;;;;;;5036441;28;20108;-77
2022/07/30 03:16:21;;;;;;;27.70;14.27;;;20.20;69.20;;;;;;5036554;28;20095;-77
2022/07/30 03:18:47;;;;;;;26.48;15.88;;;20.20;69.30;;;;;;5054299;28;20041;-77
2022/07/30 03:21:15;;;;;;;27.25;15.98;;;20.10;69.50;;;;;;5039741;28;20038;-76
2022/07/30 03:23:43;;;;;;;31.92;16.58;;;20.10;69.70;;;;;;5035392;28;20025;-76
2022/07/30 03:26:11;;;;;;;28.92;16.60;;;20.10;69.90;;;;;;5036368;28;20029;-77
2022/07/30 03:28:38;;;;;;;34.90;17.85;;;20.00;70.10;;;;;;5036051;28;20026;-77
2022/07/30 03:31:06;;;;;;;31.77;15.45;;;20.00;70.10;;;;;;5035205;28;20542;-77
2022/07/30 03:33:34;;;;;;;32.08;17.23;;;20.00;70.00;;;;;;5035151;28;20059;-77
2022/07/30 03:36:00;;;;;;;32.97;17.17;;;20.00;70.50;;;;;;5036236;28;20155;-77
2022/07/30 03:38:29;;;;;;;33.53;18.15;;;20.00;70.40;;;;;;5036067;28;20029;-76
2022/07/30 03:40:55;;;;;;;28.55;17.27;;;20.00;70.90;;;;;;5067959;28;20021;-77
2022/07/30 03:43:21;;;;;;;34.28;18.83;;;20.00;70.40;;;;;;5036250;28;20109;-77
2022/07/30 03:45:49;;;;;;;29.88;18.05;;;20.10;70.10;;;;;;5036085;28;20048;-77
2022/07/30 03:48:15;;;;;;;39.47;18.85;;;20.00;70.70;;;;;;5035956;28;20045;-77
2022/07/30 03:50:41;;;;;;;32.80;19.20;;;20.00;70.40;;;;;;5035676;28;20032;-77
2022/07/30 03:53:09;;;;;;;36.63;20.13;;;20.10;71.00;;;;;;5036325;28;20507;-77
2022/07/30 03:55:35;;;;;;;37.15;20.98;;;20.00;70.90;;;;;;5054648;28;20541;-76
2022/07/30 03:58:02;;;;;;;38.42;20.83;;;20.00;70.80;;;;;;5055728;28;20040;-77
2022/07/30 04:00:28;;;;;;;38.33;20.75;;;19.90;70.90;;;;;;5054222;28;20033;-77
2022/07/30 04:02:55;;;;;;;38.55;21.55;;;19.90;71.00;;;;;;5054670;28;20033;-77
2022/07/30 04:05:21;;;;;;;41.92;21.75;;;19.90;71.50;;;;;;5055644;28;20395;-77
2022/07/30 04:07:47;;;;;;;42.78;21.60;;;19.90;71.80;;;;;;5055556;28;20080;-77
2022/07/30 04:10:14;;;;;;;44.90;23.50;;;19.80;72.10;;;;;;5043564;28;20038;-77
2022/07/30 04:12:39;;;;;;;48.10;23.88;;;19.80;72.40;;;;;;5035575;28;20828;-77
2022/07/30 04:15:06;;;;;;;46.15;22.98;;;19.80;72.20;;;;;;5035574;28;20030;-77
2022/07/30 04:17:52;;;;;;;47.05;22.50;;;19.80;72.20;;;;;;5039614;28;20035;-77
2022/07/30 04:20:24;;;;;;;48.75;23.67;;;19.80;72.10;;;;;;5035527;28;20469;-77
2022/07/30 04:22:51;;;;;;;49.47;23.27;;;19.80;72.50;;;;;;5040360;28;20021;-77
2022/07/30 04:25:18;;;;;;;51.80;25.67;;;19.70;72.60;;;;;;5055443;28;20032;-77
2022/07/30 04:27:44;;;;;;;52.10;23.85;;;19.70;73.60;;;;;;5051166;28;20037;-77
2022/07/30 04:30:10;;;;;;;50.83;23.98;;;19.70;73.30;;;;;;5051018;28;20048;-77
2022/07/30 04:32:36;;;;;;;53.47;24.80;;;19.70;74.00;;;;;;5035459;28;20032;-77
2022/07/30 04:35:03;;;;;;;51.25;22.90;;;19.70;73.50;;;;;;5035322;28;20061;-76
2022/07/30 04:37:29;;;;;;;47.28;23.05;;;19.70;73.10;;;;;;5042242;28;20033;-77
2022/07/30 04:39:56;;;;;;;45.85;21.65;;;19.80;73.20;;;;;;5055025;28;20033;-77
2022/07/30 04:42:23;;;;;;;47.90;22.80;;;19.80;73.20;;;;;;5035635;28;20048;-77
2022/07/30 04:44:49;;;;;;;52.17;23.15;;;19.80;73.40;;;;;;5035434;28;20040;-78
2022/07/30 04:47:16;;;;;;;48.75;21.92;;;19.80;73.50;;;;;;5035281;28;20092;-76
2022/07/30 04:49:43;;;;;;;47.05;21.90;;;19.80;73.20;;;;;;5034167;28;20037;-77
2022/07/30 04:52:11;;;;;;;54.40;21.23;;;19.80;73.20;;;;;;5047413;28;20017;-77
2022/07/30 04:54:42;;;;;;;47.65;21.13;;;19.70;73.50;;;;;;5055210;28;20055;-77
2022/07/30 04:57:10;;;;;;;58.25;22.02;;;19.80;73.60;;;;;;5055099;28;20149;-77
2022/07/30 04:59:37;;;;;;;53.83;21.40;;;19.80;73.80;;;;;;5041009;28;20022;-77
2022/07/30 05:02:05;;;;;;;53.83;23.30;;;19.80;74.00;;;;;;5057292;28;20036;-77
2022/07/30 05:04:33;;;;;;;49.00;21.60;;;19.80;73.80;;;;;;5053654;28;20025;-77
2022/07/30 05:07:00;;;;;;;43.42;19.80;;;19.80;73.90;;;;;;5039004;28;20070;-77
2022/07/30 05:09:27;;;;;;;46.33;20.67;;;19.80;73.60;;;;;;5041496;28;20051;-77
2022/07/30 05:11:54;;;;;;;47.97;22.05;;;19.80;73.80;;;;;;5059001;28;20504;-77
2022/07/30 05:14:21;;;;;;;49.67;22.10;;;19.80;73.50;;;;;;5042735;28;20488;-77
2022/07/30 05:16:48;;;;;;;45.70;22.08;;;19.70;74.10;;;;;;5037816;28;20034;-77
2022/07/30 05:19:13;;;;;;;46.58;21.60;;;19.70;74.00;;;;;;5038655;28;20045;-77
2022/07/30 05:21:39;;;;;;;48.05;20.83;;;19.80;73.70;;;;;;5041257;28;20021;-77
2022/07/30 05:24:05;;;;;;;43.85;20.85;;;19.80;73.50;;;;;;5058598;28;20025;-77
2022/07/30 05:26:31;;;;;;;46.47;21.95;;;19.80;73.70;;;;;;5058562;28;20637;-77
2022/07/30 05:28:57;;;;;;;42.20;20.50;;;19.70;73.80;;;;;;5052671;28;20396;-77
2022/07/30 05:31:23;;;;;;;53.38;20.75;;;19.70;74.20;;;;;;5056390;28;20455;-77
2022/07/30 05:33:49;;;;;;;44.85;21.25;;;19.80;73.70;;;;;;5052776;28;20033;-77
2022/07/30 05:36:15;;;;;;;45.55;20.92;;;19.80;74.00;;;;;;5038414;28;20037;-77
2022/07/30 05:38:40;;;;;;;49.63;21.70;;;19.80;73.50;;;;;;5038402;28;21952;-77
2022/07/30 05:41:06;;;;;;;43.45;21.48;;;19.80;73.90;;;;;;5038320;28;20050;-77
2022/07/30 05:43:32;;;;;;;45.40;21.50;;;19.80;73.70;;;;;;5039707;28;20052;-77
2022/07/30 05:45:57;;;;;;;43.28;21.25;;;19.90;73.10;;;;;;5057196;28;20025;-77
2022/07/30 05:48:23;;;;;;;49.88;22.23;;;19.80;73.50;;;;;;5057049;28;20025;-77
2022/07/30 05:50:48;;;;;;;44.97;22.05;;;19.90;73.70;;;;;;5058118;28;20025;-77
2022/07/30 05:53:14;;;;;;;44.75;19.92;;;19.80;73.50;;;;;;5054856;28;20025;-77
2022/07/30 05:55:40;;;;;;;39.78;20.90;;;19.80;73.90;;;;;;5037170;28;20476;-77
2022/07/30 05:58:06;;;;;;;41.72;21.30;;;19.80;74.20;;;;;;5037742;28;20490;-77
2022/07/30 06:00:32;;;;;;;41.60;20.65;;;19.80;74.30;;;;;;5057400;28;20081;-77
2022/07/30 06:02:58;;;;;;;46.90;22.27;;;19.90;73.90;;;;;;5056432;28;20111;-77
2022/07/30 06:05:24;;;;;;;46.95;20.67;;;19.90;73.90;;;;;;5057858;28;20083;-77
2022/07/30 06:07:49;;;;;;;41.85;22.58;;;19.90;73.80;;;;;;5056250;28;20106;-77
2022/07/30 06:10:15;;;;;;;40.95;21.58;;;19.90;73.80;;;;;;5056706;28;20021;-77
2022/07/30 06:12:41;;;;;;;43.40;20.35;;;19.90;73.90;;;;;;5051653;28;20100;-77
2022/07/30 06:15:09;;;;;;;41.63;22.50;;;20.00;73.90;;;;;;5053046;28;21315;-77
2022/07/30 06:17:43;;;;;;;41.13;20.80;;;20.00;73.70;;;;;;5044782;28;20029;-77
2022/07/30 06:20:11;;;;;;;38.78;20.80;;;20.10;73.50;;;;;;5045477;28;20042;-77
2022/07/30 06:22:36;;;;;;;36.70;20.67;;;20.10;73.30;;;;;;5069810;28;20124;-77
2022/07/30 06:25:02;;;;;;;45.22;20.45;;;20.20;73.30;;;;;;5037453;28;20052;-77
2022/07/30 06:27:28;;;;;;;36.90;19.45;;;20.20;73.70;;;;;;5037440;28;20972;-77
2022/07/30 06:29:53;;;;;;;37.17;19.50;;;20.20;73.40;;;;;;5037368;28;20028;-77
2022/07/30 06:32:19;;;;;;;38.15;19.95;;;20.20;74.00;;;;;;5047556;28;20035;-77
2022/07/30 06:34:44;;;;;;;37.35;19.77;;;20.20;74.00;;;;;;5052220;28;20377;-77
2022/07/30 06:37:10;;;;;;;33.30;17.05;;;20.20;74.00;;;;;;5037332;28;20365;-77
2022/07/30 06:39:36;;;;;;;29.75;15.95;;;20.30;74.30;;;;;;5052743;28;20022;-77
2022/07/30 06:42:02;;;;;;;33.08;16.88;;;20.30;74.00;;;;;;5041999;28;20051;-77
2022/07/30 06:44:28;;;;;;;27.80;16.60;;;20.40;73.40;;;;;;5057147;28;20476;-77
2022/07/30 06:46:54;;;;;;;27.98;15.45;;;20.50;73.70;;;;;;5043370;28;20206;-77
2022/07/30 06:49:20;;;;;;;24.05;14.52;;;20.50;73.50;;;;;;5037060;28;20109;-77
2022/07/30 06:51:45;;;;;;;26.77;15.95;;;20.60;73.40;;;;;;5037120;28;20029;-77
2022/07/30 06:54:11;;;;;;;27.80;14.63;;;20.50;73.60;;;;;;5035875;28;20472;-77
2022/07/30 06:56:37;;;;;;;24.85;13.02;;;20.60;73.90;;;;;;5036968;28;20034;-77
2022/07/30 06:59:03;;;;;;;25.02;12.88;;;20.60;74.20;;;;;;5035364;28;20068;-77
2022/07/30 07:01:28;;;;;;;23.02;12.13;;;20.70;74.00;;;;;;5052198;28;20060;-77
2022/07/30 07:03:54;;;;;;;20.27;11.48;;;20.80;73.60;;;;;;5056751;28;20078;-77
2022/07/30 07:06:20;;;;;;;22.80;11.70;;;20.80;73.50;;;;;;5042350;28;20017;-77
2022/07/30 07:08:45;;;;;;;17.17;10.90;;;20.80;73.80;;;;;;5035454;28;20037;-76
2022/07/30 07:11:11;;;;;;;16.65;8.95;;;20.80;73.50;;;;;;5035379;28;20442;-77
2022/07/30 07:13:37;;;;;;;13.40;8.88;;;20.90;72.90;;;;;;5036600;28;20044;-77
2022/07/30 07:16:03;;;;;;;14.35;8.00;;;21.00;72.90;;;;;;5036532;28;20017;-77
2022/07/30 07:18:28;;;;;;;13.43;7.93;;;21.20;72.80;;;;;;5047472;28;20455;-77
2022/07/30 07:20:54;;;;;;;13.20;8.95;;;21.30;72.30;;;;;;5036495;28;20025;-77
2022/07/30 07:23:20;;;;;;;11.73;7.30;;;21.60;71.70;;;;;;5034807;28;20064;-77
2022/07/30 07:25:46;;;;;;;9.73;6.20;;;22.20;70.10;;;;;;5036165;28;20021;-77
2022/07/30 07:28:11;;;;;;;9.68;5.30;;;23.60;66.50;;;;;;5036215;28;20025;-78
2022/07/30 07:30:37;;;;;;;9.25;4.70;;;26.00;59.00;;;;;;5036270;28;20156;-78
2022/07/30 07:33:03;;;;;;;8.60;4.38;;;28.90;51.20;;;;;;5052384;28;20044;-78
2022/07/30 07:35:29;;;;;;;6.95;3.67;;;31.20;45.20;;;;;;5056177;28;20021;-78
2022/07/30 07:37:54;;;;;;;6.93;4.22;;;33.00;40.90;;;;;;5044531;28;20037;-79
2022/07/30 07:40:20;;;;;;;6.47;4.07;;;34.40;38.20;;;;;;5036053;28;20032;-78
2022/07/30 07:42:46;;;;;;;5.25;3.30;;;35.30;36.00;;;;;;5036287;28;20033;-79
2022/07/30 07:45:11;;;;;;;3.75;2.42;;;35.70;34.60;;;;;;5036382;28;20550;-79
2022/07/30 07:47:47;;;;;;;5.75;2.97;;;36.20;33.60;;;;;;5036445;28;20464;-79
2022/07/30 07:50:18;;;;;;;4.38;2.70;;;36.60;32.50;;;;;;5036385;28;20029;-79
2022/07/30 07:52:43;;;;;;;5.65;2.78;;;37.10;32.00;;;;;;5050013;28;20036;-79
2022/07/30 07:55:09;;;;;;;4.70;2.60;;;37.30;31.50;;;;;;5055879;28;20025;-79
2022/07/30 07:57:42;;;;;;;5.38;2.50;;;37.80;30.60;;;;;;5039626;28;20071;-79
2022/07/30 08:00:13;;;;;;;5.47;2.40;;;38.00;29.10;;;;;;5040069;28;20546;-79
2022/07/30 08:02:40;;;;;;;2.55;1.80;;;38.30;29.40;;;;;;5054448;28;20028;-79
2022/07/30 08:05:07;;;;;;;3.83;2.47;;;38.70;28.80;;;;;;5037974;28;20391;-79
2022/07/30 08:07:33;;;;;;;3.72;2.03;;;39.20;27.60;;;;;;5035817;28;20492;-79
2022/07/30 08:09:59;;;;;;;4.00;2.13;;;39.40;27.20;;;;;;5035839;28;20040;-79
2022/07/30 08:12:26;;;;;;;2.80;1.80;;;39.80;27.40;;;;;;5040583;28;20029;-79
2022/07/30 08:14:51;;;;;;;2.65;1.65;;;39.90;26.90;;;;;;5055614;28;20025;-79
2022/07/30 08:17:18;;;;;;;4.22;1.90;;;40.30;26.50;;;;;;5055462;28;20055;-79
2022/07/30 08:19:44;;;;;;;3.83;1.48;;;40.60;26.00;;;;;;5048891;28;20457;-79
2022/07/30 08:22:10;;;;;;;4.13;1.80;;;41.00;25.80;;;;;;5034567;28;20160;-79
2022/07/30 08:24:36;;;;;;;2.80;1.75;;;41.00;25.20;;;;;;5035471;28;20021;-79
2022/07/30 08:27:02;;;;;;;2.88;1.20;;;41.10;25.40;;;;;;5034500;28;20117;-79
2022/07/30 08:29:28;;;;;;;6.07;2.05;;;41.30;24.60;;;;;;5034415;28;20032;-79
2022/07/30 08:31:54;;;;;;;4.18;1.40;;;41.70;24.60;;;;;;5050104;28;20480;-79
2022/07/30 08:34:20;;;;;;;5.03;1.90;;;42.00;24.30;;;;;;5055488;28;20131;-79
2022/07/30 08:36:46;;;;;;;3.67;1.83;;;41.90;24.20;;;;;;5057743;28;20033;-79
2022/07/30 08:39:12;;;;;;;4.07;1.80;;;42.00;24.80;;;;;;5052817;28;20510;-79
2022/07/30 08:41:39;;;;;;;2.67;1.42;;;42.00;24.70;;;;;;5039534;28;20026;-79
2022/07/30 08:44:09;;;;;;;3.42;1.50;;;42.10;24.30;;;;;;5039266;28;20053;-79
2022/07/30 08:46:37;;;;;;;2.60;1.00;;;42.50;23.70;;;;;;5039830;28;20033;-79
2022/07/30 08:49:04;;;;;;;2.05;0.85;;;42.80;23.60;;;;;;5039333;28;20071;-79
2022/07/30 08:51:29;;;;;;;2.95;1.00;;;43.00;23.30;;;;;;5038093;28;20029;-79
2022/07/30 08:53:56;;;;;;;3.25;1.27;;;42.90;23.10;;;;;;5039197;28;20025;-79
2022/07/30 08:56:22;;;;;;;2.72;1.05;;;42.90;22.70;;;;;;5039353;28;20029;-79
2022/07/30 08:58:48;;;;;;;2.03;0.95;;;43.20;22.40;;;;;;5039003;28;20026;-79
2022/07/30 09:01:14;;;;;;;4.55;1.23;;;43.30;22.50;;;;;;5052548;28;20045;-79
2022/07/30 09:03:40;;;;;;;2.67;1.17;;;43.30;22.40;;;;;;5054354;28;20037;-80
2022/07/30 09:06:05;;;;;;;3.05;1.00;;;43.20;22.00;;;;;;5038045;28;20030;-79
2022/07/30 09:08:31;;;;;;;5.13;1.00;;;43.20;22.10;;;;;;5037944;28;20353;-79
2022/07/30 09:10:58;;;;;;;2.22;0.90;;;42.80;22.00;;;;;;5037742;28;20025;-80
2022/07/30 09:13:30;;;;;;;2.92;0.60;;;43.10;21.70;;;;;;5037942;28;20109;-80
2022/07/30 09:15:56;;;;;;;1.67;0.77;;;43.40;22.80;;;;;;5037922;28;20056;-80
2022/07/30 09:18:36;;;;;;;2.22;0.98;;;43.80;22.30;;;;;;5043836;28;20106;-79
2022/07/30 09:21:23;;;;;;;2.05;0.80;;;44.00;21.70;;;;;;5038932;28;20511;-80
2022/07/30 09:24:08;;;;;;;8.57;1.30;;;44.10;21.10;;;;;;5037718;28;20025;-79
2022/07/30 09:26:53;;;;;;;3.25;0.98;;;43.80;21.60;;;;;;5039000;28;20272;-80
2022/07/30 09:29:22;;;;;;;3.58;0.88;;;43.90;21.50;;;;;;5038655;28;20113;-79
2022/07/30 09:32:00;;;;;;;2.22;1.05;;;44.20;21.40;;;;;;5044382;28;20384;-79
2022/07/30 09:34:30;;;;;;;1.77;0.80;;;43.90;21.40;;;;;;5057484;28;20029;-80
2022/07/30 09:36:58;;;;;;;4.13;0.93;;;43.70;21.30;;;;;;5047244;28;20035;-79
2022/07/30 09:39:35;;;;;;;3.25;1.10;;;43.70;21.00;;;;;;5038356;28;20064;-80
2022/07/30 09:42:02;;;;;;;4.35;1.20;;;43.70;21.20;;;;;;5038322;28;20037;-80
2022/07/30 09:44:29;;;;;;;1.95;0.90;;;42.90;21.30;;;;;;5037037;28;20064;-79
2022/07/30 09:46:56;;;;;;;2.47;0.93;;;43.10;21.90;;;;;;5036461;28;20087;-79
2022/07/30 09:49:26;;;;;;;4.47;1.15;;;43.40;20.90;;;;;;5037269;28;20014;-79
2022/07/30 09:51:53;;;;;;;2.00;0.90;;;43.60;21.40;;;;;;5038205;28;20045;-79
2022/07/30 09:54:19;;;;;;;3.67;1.33;;;43.90;21.10;;;;;;5036624;28;20576;-79
2022/07/30 09:56:45;;;;;;;3.58;1.15;;;44.00;20.70;;;;;;5038232;28;20431;-80
2022/07/30 09:59:30;;;;;;;1.63;0.85;;;43.70;21.00;;;;;;5042710;28;20095;-79
2022/07/30 10:01:57;;;;;;;4.20;1.15;;;43.80;21.60;;;;;;5058165;28;20013;-79
2022/07/30 10:04:31;;;;;;;2.47;0.83;;;43.90;20.90;;;;;;5058033;28;20505;-79
2022/07/30 10:06:59;;;;;;;3.13;0.88;;;43.90;20.40;;;;;;5057814;28;20078;-79
2022/07/30 10:09:30;;;;;;;4.25;1.00;;;43.60;21.40;;;;;;5041283;28;20033;-79
2022/07/30 10:11:58;;;;;;;1.88;0.77;;;43.50;20.60;;;;;;5037981;28;20036;-79
2022/07/30 10:14:27;;;;;;;3.40;1.17;;;43.20;20.80;;;;;;5037869;28;20044;-79
2022/07/30 10:16:53;;;;;;;2.42;0.77;;;43.00;21.10;;;;;;5038211;28;20051;-79
2022/07/30 10:19:20;;;;;;;3.03;0.80;;;42.60;22.40;;;;;;5037457;28;20049;-79
2022/07/30 10:21:48;;;;;;;1.88;0.68;;;42.60;21.90;;;;;;5037594;28;20127;-80
2022/07/30 10:24:17;;;;;;;3.22;1.13;;;42.60;22.40;;;;;;5048637;28;20017;-79
2022/07/30 10:26:45;;;;;;;2.25;0.90;;;41.80;23.10;;;;;;5037538;28;20029;-79
2022/07/30 10:29:11;;;;;;;3.28;0.90;;;41.70;23.10;;;;;;5036293;28;20120;-79
2022/07/30 10:31:37;;;;;;;2.40;0.73;;;41.60;23.00;;;;;;5036156;28;20063;-79
2022/07/30 10:34:03;;;;;;;2.45;1.10;;;41.50;23.30;;;;;;5037581;28;20369;-79
2022/07/30 10:36:30;;;;;;;2.63;1.02;;;40.90;22.80;;;;;;5049268;28;20029;-79
2022/07/30 10:38:56;;;;;;;2.22;0.60;;;40.70;23.60;;;;;;5055919;28;20119;-79
2022/07/30 10:41:40;;;;;;;3.30;0.70;;;40.30;24.60;;;;;;5057264;28;20106;-79
2022/07/30 10:44:47;;;;;;;1.60;0.75;;;39.70;24.50;;;;;;5050966;28;20025;-79
2022/07/30 10:47:17;;;;;;;6.05;0.90;;;38.40;25.60;;;;;;5035749;28;20032;-78
2022/07/30 10:50:16;;;;;;;2.10;0.90;;;37.30;27.50;;;;;;5036023;28;20018;-78
2022/07/30 10:53:00;;;;;;;1.80;0.70;;;36.70;28.70;;;;;;5048470;28;20032;-79
2022/07/30 10:55:32;;;;;;;3.25;0.82;;;36.30;29.60;;;;;;5055713;28;20024;-79
2022/07/30 10:58:11;;;;;;;2.15;0.88;;;35.40;29.60;;;;;;5041323;28;20045;-79
2022/07/30 11:00:43;;;;;;;3.20;0.90;;;35.10;29.70;;;;;;5043459;28;20048;-79
2022/07/30 11:03:18;;;;;;;1.58;0.80;;;34.80;31.10;;;;;;5055790;28;20047;-79
2022/07/30 11:05:46;;;;;;;4.57;0.90;;;34.60;31.00;;;;;;5056621;28;20055;-79
2022/07/30 11:08:40;;;;;;;3.28;0.98;;;34.20;32.20;;;;;;5043709;28;20033;-79
2022/07/30 11:11:21;;;;;;;2.83;1.02;;;34.20;31.80;;;;;;5035281;28;20032;-79
2022/07/30 11:13:59;;;;;;;2.08;1.13;;;34.20;32.20;;;;;;5036419;28;20033;-78
2022/07/30 11:16:50;;;;;;;1.77;0.77;;;34.10;32.10;;;;;;5035518;28;20021;-79
2022/07/30 11:19:20;;;;;;;2.28;0.80;;;33.90;32.30;;;;;;5031600;28;20092;-78
2022/07/30 11:21:46;;;;;;;2.67;0.85;;;33.60;32.60;;;;;;5056336;28;20144;-79
2022/07/30 11:24:40;;;;;;;3.03;0.80;;;33.40;32.20;;;;;;5056429;28;20396;-78
2022/07/30 11:27:06;;;;;;;4.72;1.23;;;33.40;33.90;;;;;;5056182;28;20024;-78
2022/07/30 11:29:39;;;;;;;3.63;0.98;;;33.40;33.10;;;;;;5037973;28;20030;-78
2022/07/30 11:32:32;;;;;;;2.20;0.85;;;33.40;33.80;;;;;;5034948;28;20029;-79
2022/07/30 11:35:15;;;;;;;1.60;0.80;;;33.40;32.90;;;;;;5036201;28;20030;-78
2022/07/30 11:38:10;;;;;;;5.03;1.15;;;33.40;33.30;;;;;;5036020;28;20025;-78
2022/07/30 11:40:40;;;;;;;2.30;0.90;;;33.30;33.50;;;;;;5034799;28;20068;-78
2022/07/30 11:43:31;;;;;;;2.03;0.90;;;33.40;33.60;;;;;;5044099;28;20021;-79
2022/07/30 11:46:24;;;;;;;1.50;0.70;;;33.20;33.50;;;;;;5055968;28;20574;-78
2022/07/30 11:49:03;;;;;;;2.97;1.08;;;33.20;34.50;;;;;;5055964;28;20032;-78
2022/07/30 11:51:45;;;;;;;1.60;0.80;;;33.00;33.80;;;;;;5041564;28;20025;-79
2022/07/30 11:54:11;;;;;;;1.85;1.02;;;32.80;34.70;;;;;;5036036;28;20064;-79
2022/07/30 11:56:56;;;;;;;2.55;0.90;;;32.50;34.30;;;;;;5035905;28;20461;-78
2022/07/30 11:59:22;;;;;;;2.50;1.17;;;32.50;34.90;;;;;;5035620;28;20484;-79
2022/07/30 12:01:52;;;;;;;1.80;1.00;;;32.60;34.90;;;;;;5053796;28;20048;-78
2022/07/30 12:04:18;;;;;;;1.33;0.73;;;32.60;34.60;;;;;;5054616;28;20044;-78
2022/07/30 12:06:47;;;;;;;2.17;0.93;;;32.60;34.50;;;;;;5049322;28;20022;-78
2022/07/30 12:09:27;;;;;;;9.23;1.40;;;32.50;34.20;;;;;;5035600;28;20030;-79
2022/07/30 12:11:53;;;;;;;4.07;0.80;;;32.70;35.80;;;;;;5035331;28;20029;-78
2022/07/30 12:14:19;;;;;;;4.65;1.02;;;32.70;34.80;;;;;;5035421;28;20475;-78
2022/07/30 12:16:49;;;;;;;1.67;0.80;;;32.80;35.30;;;;;;5036923;28;20077;-79
2022/07/30 12:19:15;;;;;;;2.00;0.90;;;32.80;34.90;;;;;;5045866;28;20080;-78
2022/07/30 12:21:42;;;;;;;1.52;0.90;;;32.80;35.80;;;;;;5034538;28;20443;-79
2022/07/30 12:24:09;;;;;;;3.13;0.82;;;32.70;34.80;;;;;;5034461;28;20041;-78
2022/07/30 12:26:34;;;;;;;1.75;1.00;;;32.70;35.40;;;;;;5034545;28;20495;-78
2022/07/30 12:29:04;;;;;;;3.05;1.00;;;32.80;34.20;;;;;;5035435;28;20044;-78
2022/07/30 12:31:32;;;;;;;1.42;0.90;;;32.80;34.60;;;;;;5035281;28;20036;-79
2022/07/30 12:33:59;;;;;;;4.78;1.02;;;32.80;34.90;;;;;;5035433;28;20021;-78
2022/07/30 12:36:34;;;;;;;1.80;0.70;;;32.70;34.40;;;;;;5050220;28;20033;-78
2022/07/30 12:39:02;;;;;;;3.55;1.08;;;32.60;34.70;;;;;;5055254;28;20032;-78
2022/07/30 12:41:42;;;;;;;1.40;0.80;;;32.60;34.60;;;;;;5055306;28;20036;-78
2022/07/30 12:44:08;;;;;;;3.78;1.25;;;32.60;34.70;;;;;;5054607;28;20104;-78
2022/07/30 12:46:39;;;;;;;1.80;1.08;;;32.80;34.80;;;;;;5054823;28;20029;-79